Time;durP1;ratioP1;P1;durP2;ratioP2;P2;SDS_P1;SDS_P2;PMS_P1;PMS_P2;Temp;Humidity;BMP_temperature;BMP_pressure;BME280_temperature;BME280_humidity;BME280_pressure;Samples;Min_cycle;Max_cycle;Signal;HPM_P1;HPM_P2
2021/07/09 00:01:45;;;;;;;4.15;2.42;;;16.70;99.90;;;;;;5035008;28;20040;-78
2021/07/09 00:04:12;;;;;;;4.40;2.20;;;16.60;99.90;;;;;;5023364;28;20041;-78
2021/07/09 00:06:38;;;;;;;3.75;2.10;;;16.70;99.90;;;;;;5027926;28;20033;-78
2021/07/09 00:09:05;;;;;;;4.22;2.30;;;16.60;99.90;;;;;;5035095;28;20032;-78
2021/07/09 00:11:34;;;;;;;6.50;2.40;;;16.60;99.90;;;;;;5015621;28;20387;-78
2021/07/09 00:14:00;;;;;;;6.07;2.08;;;16.60;99.90;;;;;;5031272;28;20045;-79
2021/07/09 00:16:27;;;;;;;6.13;2.83;;;16.70;99.90;;;;;;4998660;28;20041;-78
2021/07/09 00:18:53;;;;;;;5.40;1.98;;;16.60;99.90;;;;;;5014883;28;20038;-79
2021/07/09 00:21:19;;;;;;;3.60;2.03;;;16.60;99.90;;;;;;5015812;28;20030;-78
2021/07/09 00:23:46;;;;;;;4.90;2.13;;;16.60;99.90;;;;;;5021128;28;20463;-78
2021/07/09 00:26:13;;;;;;;3.65;2.38;;;16.60;99.90;;;;;;5033388;28;20045;-78
2021/07/09 00:28:40;;;;;;;5.97;2.70;;;16.60;99.90;;;;;;5022395;28;20593;-78
2021/07/09 00:31:06;;;;;;;4.72;2.30;;;16.60;99.90;;;;;;5025003;28;20045;-78
2021/07/09 00:33:32;;;;;;;6.15;2.88;;;16.60;99.90;;;;;;5016444;28;20042;-78
2021/07/09 00:35:59;;;;;;;5.32;2.42;;;16.60;99.90;;;;;;5033324;28;20415;-77
2021/07/09 00:38:25;;;;;;;3.60;2.05;;;16.50;99.90;;;;;;5012676;28;20387;-79
2021/07/09 00:40:51;;;;;;;5.05;2.35;;;16.50;99.90;;;;;;5020622;28;20037;-79
2021/07/09 00:43:17;;;;;;;4.95;2.50;;;16.60;99.90;;;;;;5028638;28;20030;-78
2021/07/09 00:45:44;;;;;;;8.55;2.88;;;16.50;99.90;;;;;;5023283;28;20540;-79
2021/07/09 00:48:10;;;;;;;5.45;2.72;;;16.50;99.90;;;;;;5030442;28;20033;-78
2021/07/09 00:50:36;;;;;;;6.40;2.60;;;16.50;99.90;;;;;;5020939;28;20037;-78
2021/07/09 00:53:02;;;;;;;4.45;2.42;;;16.50;99.90;;;;;;5042859;28;20038;-79
2021/07/09 00:55:29;;;;;;;5.43;2.53;;;16.50;99.90;;;;;;5036865;28;20056;-79
2021/07/09 00:58:00;;;;;;;3.35;2.60;;;16.50;99.90;;;;;;5023227;28;20037;-79
2021/07/09 01:00:29;;;;;;;4.28;2.78;;;16.50;99.90;;;;;;5040881;28;20044;-78
2021/07/09 01:02:56;;;;;;;4.45;2.45;;;16.50;99.90;;;;;;5037464;28;20042;-79
2021/07/09 01:05:24;;;;;;;6.85;2.95;;;16.40;99.90;;;;;;5023029;28;20044;-77
2021/07/09 01:07:50;;;;;;;4.90;2.50;;;16.50;99.90;;;;;;5044885;28;20044;-79
2021/07/09 01:10:18;;;;;;;5.07;2.80;;;16.40;99.90;;;;;;5049390;28;20028;-79
2021/07/09 01:12:45;;;;;;;7.80;3.00;;;16.40;99.90;;;;;;5032643;28;20041;-78
2021/07/09 01:15:15;;;;;;;4.80;2.70;;;16.40;99.90;;;;;;5007750;28;20468;-78
2021/07/09 01:17:42;;;;;;;3.95;2.35;;;16.40;99.90;;;;;;5022674;28;20037;-78
2021/07/09 01:20:11;;;;;;;6.35;3.15;;;16.40;99.90;;;;;;5029487;28;20052;-79
2021/07/09 01:22:42;;;;;;;9.63;3.03;;;16.40;99.90;;;;;;5040251;28;20038;-80
2021/07/09 01:25:14;;;;;;;5.65;2.90;;;16.40;99.90;;;;;;5027961;28;20052;-79
2021/07/09 01:27:43;;;;;;;5.10;3.45;;;16.40;99.90;;;;;;5021945;28;20034;-78
2021/07/09 01:30:13;;;;;;;3.67;2.55;;;16.40;99.90;;;;;;5019666;28;20502;-79
2021/07/09 01:32:39;;;;;;;4.73;2.97;;;16.40;99.90;;;;;;5042458;28;20041;-78
2021/07/09 01:35:06;;;;;;;4.35;2.47;;;16.40;99.90;;;;;;5045876;28;20021;-78
2021/07/09 01:37:33;;;;;;;6.53;2.47;;;16.50;99.90;;;;;;5041987;28;20040;-78
2021/07/09 01:40:03;;;;;;;5.53;2.40;;;16.40;99.90;;;;;;5033943;28;20037;-78
2021/07/09 01:42:32;;;;;;;3.83;2.72;;;16.40;99.90;;;;;;5020996;28;20032;-78
2021/07/09 01:45:01;;;;;;;5.88;3.10;;;16.40;99.90;;;;;;4967810;28;20050;-78
2021/07/09 01:47:27;;;;;;;8.27;3.13;;;16.40;99.90;;;;;;5022422;28;20044;-78
2021/07/09 01:49:54;;;;;;;4.07;2.38;;;16.40;99.90;;;;;;5039213;28;20045;-78
2021/07/09 01:52:22;;;;;;;5.18;2.80;;;16.40;99.90;;;;;;5039915;28;20025;-74
2021/07/09 01:54:49;;;;;;;4.60;2.88;;;16.40;99.90;;;;;;5018762;28;20054;-79
2021/07/09 01:57:15;;;;;;;5.85;2.65;;;16.40;99.90;;;;;;5019284;28;20050;-79
2021/07/09 01:59:42;;;;;;;6.35;3.55;;;16.40;99.90;;;;;;5028589;28;20033;-78
2021/07/09 02:02:09;;;;;;;4.72;2.90;;;16.50;99.90;;;;;;5001633;28;20042;-76
2021/07/09 02:04:48;;;;;;;5.05;2.67;;;16.40;99.90;;;;;;5019786;28;20038;-79
2021/07/09 02:07:15;;;;;;;3.83;2.72;;;16.50;99.90;;;;;;5035070;28;20463;-78
2021/07/09 02:09:46;;;;;;;4.72;2.42;;;16.50;99.90;;;;;;5032028;28;20536;-78
2021/07/09 02:12:15;;;;;;;6.07;2.83;;;16.50;99.90;;;;;;5032829;28;20118;-76
2021/07/09 02:14:41;;;;;;;3.45;2.95;;;16.50;99.90;;;;;;5032945;28;20045;-78
2021/07/09 02:17:10;;;;;;;5.93;2.53;;;16.50;99.90;;;;;;5016549;28;20042;-78
2021/07/09 02:19:37;;;;;;;5.32;2.95;;;16.50;99.90;;;;;;5024733;28;20030;-79
2021/07/09 02:22:07;;;;;;;4.03;2.53;;;16.50;99.90;;;;;;5045778;28;20041;-79
2021/07/09 02:24:34;;;;;;;7.45;2.75;;;16.50;99.90;;;;;;5054114;28;20041;-79
2021/07/09 02:27:02;;;;;;;6.47;2.80;;;16.50;99.90;;;;;;5039733;28;20041;-79
2021/07/09 02:29:30;;;;;;;5.75;3.03;;;16.50;99.90;;;;;;5020449;28;20037;-79
2021/07/09 02:31:57;;;;;;;4.43;2.85;;;16.50;99.90;;;;;;5032014;28;20030;-79
2021/07/09 02:34:24;;;;;;;5.68;3.10;;;16.50;99.90;;;;;;5021712;28;20056;-77
2021/07/09 02:36:51;;;;;;;5.15;3.20;;;16.40;99.90;;;;;;5030017;28;20034;-79
2021/07/09 02:39:17;;;;;;;2.60;2.20;;;16.40;99.90;;;;;;5021758;28;20029;-78
2021/07/09 02:41:45;;;;;;;6.38;3.75;;;16.40;99.90;;;;;;5018297;28;20045;-78
2021/07/09 02:44:12;;;;;;;4.55;2.88;;;16.40;99.90;;;;;;5026310;28;20094;-78
2021/07/09 02:46:38;;;;;;;7.75;2.83;;;16.40;99.90;;;;;;5019049;28;20049;-78
2021/07/09 02:49:05;;;;;;;3.20;2.85;;;16.40;99.90;;;;;;5022506;28;20455;-79
2021/07/09 02:51:31;;;;;;;8.00;4.00;;;16.40;99.90;;;;;;5011102;28;20038;-78
2021/07/09 02:53:57;;;;;;;4.03;2.53;;;16.40;99.90;;;;;;5015780;28;20058;-78
2021/07/09 02:56:24;;;;;;;4.82;2.45;;;16.40;99.90;;;;;;5013657;28;20041;-76
2021/07/09 02:58:50;;;;;;;4.90;2.80;;;16.40;99.90;;;;;;5025738;28;20045;-79
2021/07/09 03:01:16;;;;;;;4.07;2.58;;;16.40;99.90;;;;;;5037095;28;20048;-79
2021/07/09 03:03:42;;;;;;;5.13;3.03;;;16.40;99.90;;;;;;5036939;28;20038;-78
2021/07/09 03:06:08;;;;;;;5.53;2.47;;;16.40;99.90;;;;;;5021509;28;20483;-77
2021/07/09 03:08:35;;;;;;;3.78;2.42;;;16.40;99.90;;;;;;5037865;28;20471;-78
2021/07/09 03:11:01;;;;;;;4.53;2.90;;;16.40;99.90;;;;;;5037771;28;20046;-79
2021/07/09 03:13:27;;;;;;;6.18;2.10;;;16.40;99.90;;;;;;5017158;28;20390;-78
2021/07/09 03:15:53;;;;;;;4.28;2.15;;;16.50;99.90;;;;;;5034802;28;20049;-79
2021/07/09 03:18:19;;;;;;;2.80;2.20;;;16.50;99.90;;;;;;5034798;28;20040;-77
2021/07/09 03:20:46;;;;;;;4.28;2.33;;;16.50;99.90;;;;;;5015287;28;20045;-78
2021/07/09 03:23:13;;;;;;;4.72;2.53;;;16.50;99.90;;;;;;5016801;28;20034;-79
2021/07/09 03:25:39;;;;;;;3.92;2.78;;;16.50;99.90;;;;;;5028623;28;20033;-78
2021/07/09 03:28:06;;;;;;;5.13;2.40;;;16.50;99.90;;;;;;5036147;28;20029;-79
2021/07/09 03:30:32;;;;;;;5.80;2.10;;;16.50;99.90;;;;;;5030758;28;20045;-78
2021/07/09 03:32:58;;;;;;;10.35;2.42;;;16.50;99.90;;;;;;5027834;28;20025;-79
2021/07/09 03:35:24;;;;;;;3.30;2.75;;;16.50;99.90;;;;;;5034172;28;20037;-76
2021/07/09 03:37:51;;;;;;;9.13;2.92;;;16.50;99.90;;;;;;5035389;28;20052;-78
2021/07/09 03:40:18;;;;;;;4.00;2.20;;;16.50;99.90;;;;;;5025094;28;20030;-79
2021/07/09 03:42:44;;;;;;;3.75;2.38;;;16.50;99.90;;;;;;5024274;28;20212;-77
2021/07/09 03:45:10;;;;;;;5.05;2.80;;;16.50;99.90;;;;;;5013586;28;20053;-78
2021/07/09 03:47:37;;;;;;;4.20;2.15;;;16.50;99.90;;;;;;5015567;28;20033;-78
2021/07/09 03:50:05;;;;;;;3.88;2.30;;;16.50;99.90;;;;;;5025601;28;20045;-79
2021/07/09 03:52:32;;;;;;;6.38;3.00;;;16.50;99.90;;;;;;5044255;28;20422;-80
2021/07/09 03:54:58;;;;;;;4.57;2.72;;;16.50;99.90;;;;;;5040352;28;20052;-79
2021/07/09 03:57:25;;;;;;;4.93;2.80;;;16.60;99.90;;;;;;5026381;28;20055;-76
2021/07/09 03:59:51;;;;;;;4.88;2.95;;;16.60;99.90;;;;;;5039698;28;20036;-78
2021/07/09 04:02:17;;;;;;;5.38;2.80;;;16.60;99.90;;;;;;5038381;28;20384;-80
2021/07/09 04:04:43;;;;;;;4.45;3.45;;;16.60;99.90;;;;;;5020929;28;20694;-80
2021/07/09 04:07:09;;;;;;;5.32;2.70;;;16.60;99.90;;;;;;5039352;28;20032;-79
2021/07/09 04:09:36;;;;;;;4.10;2.70;;;16.50;99.90;;;;;;5038372;28;20030;-79
2021/07/09 04:12:02;;;;;;;4.22;2.92;;;16.50;99.90;;;;;;5039787;28;20040;-78
2021/07/09 04:14:28;;;;;;;5.18;3.25;;;16.50;99.90;;;;;;5035974;28;20049;-78
2021/07/09 04:16:54;;;;;;;6.10;3.75;;;16.40;99.90;;;;;;5038269;28;20040;-78
2021/07/09 04:19:20;;;;;;;5.32;3.90;;;16.30;99.90;;;;;;5038053;28;20041;-78
2021/07/09 04:21:47;;;;;;;6.30;4.40;;;16.20;99.90;;;;;;5023574;28;20060;-78
2021/07/09 04:24:13;;;;;;;7.47;4.43;;;16.20;99.90;;;;;;5029548;28;20490;-78
2021/07/09 04:26:40;;;;;;;6.22;4.90;;;16.20;99.90;;;;;;5005290;28;20042;-78
2021/07/09 04:29:06;;;;;;;9.38;6.15;;;16.10;99.90;;;;;;5032981;28;20049;-78
2021/07/09 04:31:32;;;;;;;8.75;5.78;;;16.10;99.90;;;;;;5036929;28;20029;-78
2021/07/09 04:33:59;;;;;;;9.07;5.68;;;16.10;99.90;;;;;;5033783;28;20044;-78
2021/07/09 04:36:25;;;;;;;5.93;5.32;;;16.10;99.90;;;;;;5017507;28;20033;-74
2021/07/09 04:38:51;;;;;;;7.53;5.75;;;16.10;99.90;;;;;;5022486;28;20037;-75
2021/07/09 04:41:18;;;;;;;8.82;5.82;;;16.10;99.90;;;;;;5027746;28;20042;-77
2021/07/09 04:43:44;;;;;;;8.43;6.05;;;16.10;99.90;;;;;;5031768;28;20045;-77
2021/07/09 04:46:10;;;;;;;7.18;6.03;;;16.00;99.90;;;;;;5031179;28;20050;-77
2021/07/09 04:48:36;;;;;;;8.73;6.38;;;16.00;99.90;;;;;;5020421;28;20029;-76
2021/07/09 04:51:03;;;;;;;9.20;5.72;;;16.00;99.90;;;;;;5035263;28;20026;-76
2021/07/09 04:53:32;;;;;;;7.72;6.03;;;16.10;99.90;;;;;;5036667;28;20041;-77
2021/07/09 04:55:58;;;;;;;10.55;6.72;;;16.10;99.90;;;;;;5024568;28;20403;-76
2021/07/09 04:58:24;;;;;;;8.55;6.10;;;16.00;99.90;;;;;;5017975;28;20038;-73
2021/07/09 05:00:53;;;;;;;8.68;6.35;;;16.00;99.90;;;;;;5018584;28;20050;-76
2021/07/09 05:03:19;;;;;;;7.63;6.80;;;16.00;99.90;;;;;;5022359;28;20061;-77
2021/07/09 05:05:45;;;;;;;9.18;6.10;;;16.10;99.90;;;;;;5029896;28;20576;-77
2021/07/09 05:08:11;;;;;;;8.38;7.43;;;16.00;99.90;;;;;;5037393;28;20471;-79
2021/07/09 05:10:38;;;;;;;9.20;7.53;;;16.00;99.90;;;;;;5038041;28;20056;-78
2021/07/09 05:13:05;;;;;;;10.10;7.97;;;16.10;99.90;;;;;;5039108;28;20046;-79
2021/07/09 05:15:33;;;;;;;8.30;7.10;;;16.00;99.90;;;;;;5036050;28;20061;-78
2021/07/09 05:17:59;;;;;;;12.60;7.45;;;16.10;99.90;;;;;;5037367;28;20025;-79
2021/07/09 05:20:27;;;;;;;8.68;7.75;;;16.00;99.90;;;;;;5018423;28;20033;-75
2021/07/09 05:22:53;;;;;;;10.65;7.38;;;16.00;99.90;;;;;;5002040;28;20375;-78
2021/07/09 05:25:19;;;;;;;8.73;6.95;;;16.10;99.90;;;;;;5022517;28;20034;-78
2021/07/09 05:27:46;;;;;;;12.05;7.35;;;16.00;99.90;;;;;;5027528;28;20222;-79
2021/07/09 05:30:14;;;;;;;10.60;7.70;;;16.10;99.90;;;;;;5029295;28;20048;-80
2021/07/09 05:32:42;;;;;;;8.43;7.47;;;16.10;99.90;;;;;;5032852;28;20037;-80
2021/07/09 05:35:10;;;;;;;9.20;7.78;;;16.10;99.90;;;;;;5015902;28;20033;-80
2021/07/09 05:37:36;;;;;;;12.82;7.82;;;16.00;99.90;;;;;;5015376;28;20038;-80
2021/07/09 05:40:04;;;;;;;9.65;7.30;;;16.10;99.90;;;;;;5021166;28;20038;-82
2021/07/09 05:42:30;;;;;;;11.45;7.68;;;16.00;99.90;;;;;;5037938;28;20037;-80
2021/07/09 05:44:56;;;;;;;8.73;7.55;;;16.10;99.90;;;;;;5055968;28;20037;-77
2021/07/09 05:47:24;;;;;;;13.13;7.15;;;16.00;99.90;;;;;;5053698;28;20051;-79
2021/07/09 05:49:51;;;;;;;9.85;7.18;;;16.10;99.90;;;;;;5019548;28;20025;-80
2021/07/09 05:52:17;;;;;;;15.10;7.93;;;16.10;99.90;;;;;;5034835;28;20046;-80
2021/07/09 05:54:43;;;;;;;8.25;6.57;;;16.10;99.90;;;;;;5034714;28;20053;-79
2021/07/09 05:57:09;;;;;;;7.75;6.95;;;16.10;99.90;;;;;;5035026;28;20030;-80
2021/07/09 05:59:37;;;;;;;13.80;7.75;;;16.10;99.90;;;;;;5035793;28;20037;-80
2021/07/09 06:02:04;;;;;;;9.90;7.45;;;16.10;99.90;;;;;;5036110;28;20061;-79
2021/07/09 06:04:31;;;;;;;11.77;8.57;;;16.20;99.90;;;;;;5035860;28;20029;-80
2021/07/09 06:06:57;;;;;;;9.93;8.48;;;16.20;99.90;;;;;;5024501;28;20034;-81
2021/07/09 06:09:23;;;;;;;13.48;8.20;;;16.20;99.90;;;;;;5027254;28;20037;-80
2021/07/09 06:11:49;;;;;;;12.23;9.10;;;16.30;99.90;;;;;;5027846;28;20025;-81
2021/07/09 06:14:16;;;;;;;10.10;8.70;;;16.30;99.90;;;;;;5034437;28;20030;-82
2021/07/09 06:16:42;;;;;;;13.15;9.27;;;16.30;99.90;;;;;;5014245;28;20046;-85
2021/07/09 06:19:08;;;;;;;11.50;8.10;;;16.40;99.90;;;;;;5025663;28;20029;-81
2021/07/09 06:21:35;;;;;;;12.05;8.50;;;16.40;99.90;;;;;;5027330;28;20049;-81
2021/07/09 06:24:01;;;;;;;8.50;7.47;;;16.50;99.90;;;;;;5028428;28;20045;-81
2021/07/09 06:26:27;;;;;;;7.95;6.65;;;16.50;99.90;;;;;;5034275;28;20038;-77
2021/07/09 06:28:55;;;;;;;8.57;5.82;;;16.50;99.90;;;;;;5033993;28;20390;-82
2021/07/09 06:31:21;;;;;;;9.10;5.40;;;16.50;99.90;;;;;;5033092;28;20374;-80
2021/07/09 06:33:48;;;;;;;8.65;6.03;;;16.50;99.90;;;;;;5025100;28;20633;-81
2021/07/09 06:36:14;;;;;;;6.38;4.90;;;16.50;99.90;;;;;;5012056;28;20057;-80
2021/07/09 06:38:40;;;;;;;7.75;5.82;;;16.60;99.90;;;;;;5029046;28;20029;-79
2021/07/09 06:41:06;;;;;;;9.20;7.25;;;16.60;99.90;;;;;;5038945;28;20050;-81
2021/07/09 06:43:33;;;;;;;8.45;6.50;;;16.70;99.90;;;;;;5022203;28;20411;-81
2021/07/09 06:45:59;;;;;;;8.50;7.10;;;16.70;99.90;;;;;;5012190;28;20041;-80
2021/07/09 06:48:25;;;;;;;9.07;6.60;;;16.80;99.90;;;;;;5013894;28;20464;-85
2021/07/09 06:50:51;;;;;;;9.48;7.68;;;16.80;99.90;;;;;;5013912;28;20040;-87
2021/07/09 06:53:18;;;;;;;9.57;6.88;;;16.80;99.90;;;;;;5031060;28;20379;-85
2021/07/09 06:55:44;;;;;;;10.25;7.28;;;17.00;99.90;;;;;;5018609;28;20049;-77
2021/07/09 06:58:10;;;;;;;9.02;6.65;;;17.10;99.90;;;;;;5023908;28;20379;-77
2021/07/09 07:00:37;;;;;;;11.93;6.90;;;17.10;99.90;;;;;;5012960;28;20041;-77
2021/07/09 07:03:06;;;;;;;11.63;7.57;;;17.20;99.90;;;;;;5013190;28;20126;-78
2021/07/09 07:05:33;;;;;;;9.63;6.25;;;17.20;99.90;;;;;;5025454;28;20049;-76
2021/07/09 07:08:16;;;;;;;7.40;5.50;;;17.20;99.90;;;;;;5032547;28;20033;-76
2021/07/09 07:10:44;;;;;;;10.75;6.30;;;17.20;99.90;;;;;;5032538;28;20029;-77
2021/07/09 07:13:11;;;;;;;12.02;6.82;;;17.30;99.90;;;;;;5016239;28;20033;-78
2021/07/09 07:15:37;;;;;;;10.63;5.85;;;17.40;99.90;;;;;;5016066;28;20045;-77
2021/07/09 07:18:08;;;;;;;8.95;6.53;;;17.50;99.90;;;;;;5037447;28;20053;-77
2021/07/09 07:20:41;;;;;;;9.23;6.30;;;17.60;99.90;;;;;;5034912;28;20085;-76
2021/07/09 07:23:10;;;;;;;9.90;6.47;;;17.60;99.90;;;;;;5035357;28;20049;-77
2021/07/09 07:25:39;;;;;;;12.82;8.20;;;17.50;99.90;;;;;;5024412;28;20038;-77
2021/07/09 07:28:07;;;;;;;9.32;6.78;;;17.50;99.90;;;;;;5015000;28;20392;-76
2021/07/09 07:30:34;;;;;;;7.93;6.82;;;17.50;99.90;;;;;;5026527;28;20033;-76
2021/07/09 07:33:01;;;;;;;10.88;7.18;;;17.40;99.90;;;;;;5034396;28;20025;-76
2021/07/09 07:35:30;;;;;;;10.80;7.55;;;17.40;99.90;;;;;;5008691;28;20042;-76
2021/07/09 07:37:57;;;;;;;8.90;7.13;;;17.40;99.90;;;;;;5023392;28;20033;-77
2021/07/09 07:40:24;;;;;;;8.40;7.60;;;17.50;99.90;;;;;;5035302;28;20029;-77
2021/07/09 07:42:50;;;;;;;12.52;7.80;;;17.60;99.90;;;;;;5034915;28;20030;-81
2021/07/09 07:45:16;;;;;;;8.93;7.97;;;17.70;99.90;;;;;;5025878;28;20054;-77
2021/07/09 07:47:43;;;;;;;9.80;8.52;;;17.70;99.90;;;;;;5026838;28;20033;-77
2021/07/09 07:50:12;;;;;;;11.88;7.90;;;17.70;99.90;;;;;;5030977;28;20033;-76
2021/07/09 07:52:39;;;;;;;12.73;7.65;;;17.70;99.90;;;;;;5024602;28;20034;-77
2021/07/09 07:55:06;;;;;;;10.93;7.25;;;17.70;99.90;;;;;;5034453;28;20049;-77
2021/07/09 07:57:32;;;;;;;9.50;7.32;;;17.70;99.90;;;;;;5018214;28;20038;-76
2021/07/09 07:59:58;;;;;;;8.55;6.95;;;17.90;99.90;;;;;;5031320;28;20048;-77
2021/07/09 08:02:24;;;;;;;8.85;7.07;;;17.90;99.90;;;;;;5034647;28;20033;-77
2021/07/09 08:04:51;;;;;;;10.10;7.35;;;17.90;99.90;;;;;;5032767;28;20554;-78
2021/07/09 08:07:17;;;;;;;9.35;8.35;;;18.10;99.90;;;;;;5046988;28;20025;-79
2021/07/09 08:09:43;;;;;;;11.30;9.00;;;18.00;99.90;;;;;;5032487;28;20033;-81
2021/07/09 08:12:10;;;;;;;10.45;6.95;;;18.20;99.90;;;;;;5034847;28;20044;-82
2021/07/09 08:14:36;;;;;;;13.75;8.82;;;18.30;99.90;;;;;;5028337;28;20459;-80
2021/07/09 08:17:04;;;;;;;13.48;8.77;;;18.30;99.90;;;;;;5019568;28;20044;-78
2021/07/09 08:19:30;;;;;;;10.98;8.98;;;18.30;99.90;;;;;;5026602;28;20037;-77
2021/07/09 08:21:57;;;;;;;11.70;8.88;;;18.30;99.90;;;;;;5027200;28;20045;-79
2021/07/09 08:24:24;;;;;;;14.85;9.52;;;18.20;99.90;;;;;;5025964;28;20505;-80
2021/07/09 08:26:50;;;;;;;9.55;8.63;;;18.30;99.90;;;;;;5028770;28;20029;-82
2021/07/09 08:29:16;;;;;;;12.07;9.93;;;18.50;99.90;;;;;;5016123;28;20030;-80
2021/07/09 08:31:43;;;;;;;10.68;8.93;;;18.50;99.90;;;;;;5026330;28;20498;-78
2021/07/09 08:34:09;;;;;;;12.00;9.93;;;18.60;99.90;;;;;;5017190;28;20469;-81
2021/07/09 08:36:35;;;;;;;10.88;9.52;;;18.70;99.90;;;;;;5020976;28;20471;-79
2021/07/09 08:39:03;;;;;;;12.52;9.57;;;18.80;99.90;;;;;;5027340;28;20423;-78
2021/07/09 08:41:32;;;;;;;11.98;9.45;;;18.70;99.90;;;;;;5025229;28;20030;-78
2021/07/09 08:43:58;;;;;;;11.02;9.23;;;18.90;99.90;;;;;;5014831;28;20030;-79
2021/07/09 08:46:27;;;;;;;13.25;10.00;;;18.90;99.90;;;;;;5015939;28;20029;-83
2021/07/09 08:48:54;;;;;;;10.65;9.55;;;19.10;99.90;;;;;;5034084;28;20053;-83
2021/07/09 08:51:20;;;;;;;11.57;9.77;;;19.20;99.90;;;;;;5013458;28;20041;-82
2021/07/09 08:53:47;;;;;;;10.43;9.43;;;19.30;99.90;;;;;;5006430;28;20069;-87
2021/07/09 08:56:15;;;;;;;11.02;9.90;;;19.30;99.90;;;;;;5034883;28;20502;-84
2021/07/09 08:58:42;;;;;;;11.55;9.77;;;19.20;99.90;;;;;;5056291;28;20026;-86
2021/07/09 09:01:12;;;;;;;13.27;11.90;;;19.40;99.90;;;;;;5053791;28;20041;-81
2021/07/09 09:03:38;;;;;;;15.00;11.57;;;19.50;99.90;;;;;;5034043;28;20030;-82
2021/07/09 09:06:04;;;;;;;15.07;13.57;;;19.60;99.90;;;;;;5035909;28;20038;-82
2021/07/09 09:08:34;;;;;;;15.25;13.73;;;19.50;99.90;;;;;;5028987;28;20041;-82
2021/07/09 09:11:02;;;;;;;13.27;11.83;;;19.70;99.90;;;;;;5015699;28;20025;-83
2021/07/09 09:13:34;;;;;;;14.90;12.23;;;19.80;99.90;;;;;;5029703;28;20034;-82
2021/07/09 09:16:11;;;;;;;15.27;13.52;;;19.70;99.90;;;;;;5015877;28;20046;-82
2021/07/09 09:18:45;;;;;;;15.18;13.57;;;19.60;99.90;;;;;;5029061;28;20044;-81
2021/07/09 09:21:15;;;;;;;14.32;12.80;;;19.70;99.90;;;;;;5016818;28;20034;-81
2021/07/09 09:23:47;;;;;;;;;;;19.80;99.90;;;;;;5016335;28;20038;-83
2021/07/09 09:26:14;;;;;;;17.42;14.05;;;19.90;99.90;;;;;;5035583;28;19916;-80
2021/07/09 09:28:40;;;;;;;21.55;15.57;;;19.90;99.90;;;;;;5020578;28;20049;-80
2021/07/09 09:31:07;;;;;;;16.27;14.35;;;20.10;99.90;;;;;;5028269;28;20026;-83
2021/07/09 09:33:36;;;;;;;19.30;16.90;;;20.00;99.90;;;;;;5025660;28;20049;-84
2021/07/09 09:36:08;;;;;;;18.73;15.30;;;20.10;99.90;;;;;;5022707;28;20368;-83
2021/07/09 09:38:34;;;;;;;18.00;14.98;;;20.10;99.90;;;;;;5025835;28;20364;-82
2021/07/09 09:41:01;;;;;;;18.40;16.45;;;20.30;99.90;;;;;;5032418;28;20057;-78
2021/07/09 09:43:31;;;;;;;17.17;15.35;;;20.20;99.90;;;;;;5019835;28;20033;-82
2021/07/09 09:46:05;;;;;;;17.45;15.75;;;20.40;99.90;;;;;;5034122;28;20052;-82
2021/07/09 09:48:42;;;;;;;17.95;16.20;;;20.60;99.90;;;;;;5033073;28;20033;-82
2021/07/09 09:51:34;;;;;;;18.55;16.65;;;20.50;99.90;;;;;;5028065;28;20033;-81
2021/07/09 09:54:05;;;;;;;17.48;15.65;;;20.40;99.90;;;;;;5012739;28;20491;-82
2021/07/09 09:56:48;;;;;;;19.02;17.15;;;20.50;99.90;;;;;;5019765;28;20406;-85
2021/07/09 09:59:22;;;;;;;18.80;16.90;;;20.50;99.90;;;;;;5027639;28;20034;-81
2021/07/09 10:01:55;;;;;;;18.00;15.63;;;20.70;99.90;;;;;;5026006;28;20025;-87
2021/07/09 10:04:24;;;;;;;18.15;16.30;;;20.70;99.90;;;;;;5023720;28;20026;-81
2021/07/09 10:06:51;;;;;;;17.48;15.70;;;20.60;99.90;;;;;;5034903;28;20029;-83
2021/07/09 10:09:19;;;;;;;18.15;16.10;;;20.30;99.90;;;;;;5038540;28;20041;-82
2021/07/09 10:11:46;;;;;;;18.00;15.32;;;20.40;99.90;;;;;;5037407;28;20059;-80
2021/07/09 10:14:14;;;;;;;18.75;16.77;;;20.40;99.90;;;;;;5048203;28;20037;-81
2021/07/09 10:16:42;;;;;;;17.85;15.98;;;20.60;99.90;;;;;;5026639;28;20033;-83
2021/07/09 10:19:11;;;;;;;18.30;16.65;;;21.10;99.90;;;;;;5030052;28;20049;-81
2021/07/09 10:21:38;;;;;;;17.77;15.52;;;21.20;99.90;;;;;;5033263;28;20100;-82
2021/07/09 10:24:09;;;;;;;18.50;15.50;;;21.60;99.60;;;;;;5027345;28;20053;-78
2021/07/09 10:26:42;;;;;;;18.73;16.58;;;22.20;98.40;;;;;;5025593;28;20036;-79
2021/07/09 10:29:26;;;;;;;17.50;15.70;;;22.30;97.00;;;;;;5026577;28;20032;-78
2021/07/09 10:31:53;;;;;;;18.52;16.60;;;22.30;97.70;;;;;;5019294;28;20041;-79
2021/07/09 10:34:22;;;;;;;15.23;13.65;;;22.00;97.40;;;;;;5031693;28;20049;-85
2021/07/09 10:37:01;;;;;;;19.23;15.10;;;22.30;97.00;;;;;;5026581;28;20034;-79
2021/07/09 10:39:34;;;;;;;16.17;14.02;;;22.00;97.00;;;;;;5023712;28;20417;-78
2021/07/09 10:42:27;;;;;;;15.98;14.32;;;21.80;97.10;;;;;;5032602;28;20038;-79
2021/07/09 10:45:12;;;;;;;18.27;16.38;;;22.30;97.10;;;;;;5015530;28;20050;-79
2021/07/09 10:47:54;;;;;;;18.85;15.70;;;22.20;97.20;;;;;;5014874;28;20037;-79
2021/07/09 10:50:26;;;;;;;14.30;12.70;;;22.60;97.20;;;;;;5031636;28;20033;-79
2021/07/09 10:52:57;;;;;;;16.13;14.43;;;22.50;96.30;;;;;;5020359;28;20033;-75
2021/07/09 10:55:27;;;;;;;16.88;15.18;;;22.30;96.10;;;;;;5024237;28;20068;-76
2021/07/09 10:58:26;;;;;;;14.77;13.30;;;22.20;95.80;;;;;;5015377;28;20025;-73
2021/07/09 11:01:12;;;;;;;15.18;13.63;;;22.20;96.70;;;;;;5018477;28;20269;-74
2021/07/09 11:03:46;;;;;;;14.00;12.40;;;21.90;95.60;;;;;;5014384;28;20521;-73
2021/07/09 11:06:14;;;;;;;13.93;12.57;;;22.00;96.00;;;;;;5012682;28;20049;-74
2021/07/09 11:08:50;;;;;;;13.90;12.60;;;22.40;95.10;;;;;;5034584;28;20033;-73
2021/07/09 11:11:28;;;;;;;15.38;13.60;;;22.70;95.40;;;;;;5014703;28;20045;-73
2021/07/09 11:13:59;;;;;;;17.42;14.57;;;22.40;94.20;;;;;;5016771;28;20054;-73
2021/07/09 11:16:25;;;;;;;15.85;14.13;;;22.30;95.30;;;;;;5035415;28;20030;-74
2021/07/09 11:18:59;;;;;;;15.93;13.50;;;22.40;94.60;;;;;;5035171;28;20486;-73
2021/07/09 11:21:34;;;;;;;16.33;14.65;;;22.20;94.80;;;;;;5021364;28;20029;-73
2021/07/09 11:24:13;;;;;;;14.52;13.00;;;22.00;94.90;;;;;;5030886;28;20050;-73
2021/07/09 11:26:42;;;;;;;14.55;13.13;;;22.20;95.40;;;;;;5016344;28;20058;-73
2021/07/09 11:29:23;;;;;;;13.77;12.38;;;22.10;95.00;;;;;;5016980;28;20045;-73
2021/07/09 11:31:51;;;;;;;13.63;9.98;;;22.10;94.30;;;;;;5026458;28;20101;-72
2021/07/09 11:34:19;;;;;;;12.15;10.38;;;22.20;93.90;;;;;;5016448;28;20026;-73
2021/07/09 11:36:49;;;;;;;12.98;10.18;;;22.30;93.60;;;;;;5015934;28;20468;-73
2021/07/09 11:39:18;;;;;;;12.63;11.32;;;22.60;92.90;;;;;;5022111;28;20037;-72
2021/07/09 11:42:12;;;;;;;11.73;10.52;;;22.80;92.20;;;;;;5035118;28;20459;-72
2021/07/09 11:44:53;;;;;;;13.85;11.00;;;22.80;91.10;;;;;;5030861;28;20391;-73
2021/07/09 11:47:25;;;;;;;12.60;11.30;;;22.90;92.10;;;;;;5006619;28;20041;-73
2021/07/09 11:50:00;;;;;;;12.50;11.13;;;22.90;92.10;;;;;;5019174;28;20037;-74
2021/07/09 11:52:28;;;;;;;13.95;12.52;;;22.50;92.30;;;;;;5023045;28;20049;-74
2021/07/09 11:54:58;;;;;;;13.05;11.38;;;22.40;91.50;;;;;;5037403;28;20049;-75
2021/07/09 11:57:27;;;;;;;10.23;9.10;;;22.20;91.40;;;;;;5040994;28;20053;-74
2021/07/09 11:59:55;;;;;;;11.60;9.35;;;22.10;91.40;;;;;;5036929;28;20044;-76
2021/07/09 12:02:29;;;;;;;10.15;9.15;;;22.00;91.10;;;;;;5035649;28;20379;-74
2021/07/09 12:04:57;;;;;;;9.55;8.55;;;22.20;91.30;;;;;;5033796;28;20405;-73
2021/07/09 12:07:34;;;;;;;11.23;8.93;;;22.40;90.50;;;;;;5019321;28;20033;-76
2021/07/09 12:10:34;;;;;;;12.20;8.95;;;22.90;88.60;;;;;;5019486;28;20046;-73
2021/07/09 12:13:03;;;;;;;11.43;10.18;;;23.00;86.90;;;;;;5017499;28;20033;-75
2021/07/09 12:15:37;;;;;;;11.50;10.30;;;23.10;88.70;;;;;;5035672;28;20487;-74
2021/07/09 12:18:17;;;;;;;9.13;8.23;;;22.80;86.40;;;;;;5033916;28;20040;-74
2021/07/09 12:20:47;;;;;;;11.10;9.90;;;23.20;88.80;;;;;;5056868;28;20037;-75
2021/07/09 12:23:15;;;;;;;9.73;8.40;;;23.50;87.60;;;;;;5037354;28;20036;-74
2021/07/09 12:25:55;;;;;;;8.10;7.30;;;23.20;83.60;;;;;;5018216;28;20475;-75
2021/07/09 12:28:26;;;;;;;8.73;7.78;;;23.10;84.90;;;;;;5031540;28;20030;-72
2021/07/09 12:30:54;;;;;;;9.48;8.55;;;23.00;83.80;;;;;;5033837;28;20041;-73
2021/07/09 12:33:30;;;;;;;13.18;8.68;;;23.00;86.20;;;;;;5033074;28;20041;-70
2021/07/09 12:35:59;;;;;;;11.95;9.68;;;23.30;85.20;;;;;;5013789;28;20061;-72
2021/07/09 12:38:25;;;;;;;11.68;9.10;;;23.50;83.70;;;;;;5022457;28;20046;-72
2021/07/09 12:40:53;;;;;;;10.57;9.48;;;23.50;87.40;;;;;;5024590;28;20048;-72
2021/07/09 12:43:20;;;;;;;9.88;8.80;;;23.70;83.50;;;;;;5029577;28;20037;-72
2021/07/09 12:45:59;;;;;;;10.45;9.45;;;23.40;83.30;;;;;;5026300;28;20037;-72
2021/07/09 12:48:37;;;;;;;11.20;9.65;;;22.80;85.10;;;;;;5028418;28;20488;-72